createdAt,value
2023-01-26T00:00:11.864Z,15.75
2023-01-26T00:02:39.970Z,14.27
2023-01-26T00:05:08.656Z,14.48
2023-01-26T00:07:38.033Z,14.38
2023-01-26T00:10:07.538Z,15.75
2023-01-26T00:12:36.007Z,14.52
2023-01-26T00:15:04.274Z,15.68
2023-01-26T00:17:33.822Z,14.45
2023-01-26T00:20:02.680Z,13.98
2023-01-26T00:22:30.778Z,15.30
2023-01-26T00:25:00.584Z,15.77
2023-01-26T00:27:29.382Z,16.50
2023-01-26T00:29:57.775Z,14.32
2023-01-26T00:32:26.195Z,15.20
2023-01-26T00:34:56.627Z,15.02
2023-01-26T00:37:27.093Z,15.02
2023-01-26T00:39:55.626Z,15.00
2023-01-26T00:42:26.628Z,14.13
2023-01-26T00:44:54.874Z,13.20
2023-01-26T00:47:23.005Z,13.07
2023-01-26T00:49:51.175Z,14.52
2023-01-26T00:52:21.205Z,13.93
2023-01-26T00:54:50.991Z,13.48
2023-01-26T00:57:19.044Z,14.68
2023-01-26T00:59:47.339Z,14.90
2023-01-26T01:02:18.429Z,15.57
2023-01-26T01:04:46.818Z,14.82
2023-01-26T01:07:15.137Z,13.25
2023-01-26T01:09:46.522Z,13.68
2023-01-26T01:12:14.710Z,14.20
2023-01-26T01:14:43.218Z,14.50
2023-01-26T01:17:11.691Z,13.32
2023-01-26T01:19:41.305Z,15.25
2023-01-26T01:22:12.605Z,15.27
2023-01-26T01:24:41.236Z,16.38
2023-01-26T01:27:11.230Z,14.23
2023-01-26T01:29:39.382Z,14.45
2023-01-26T01:32:07.878Z,16.20
2023-01-26T01:34:37.463Z,14.30
2023-01-26T01:37:05.660Z,14.43
2023-01-26T01:39:35.091Z,16.88
2023-01-26T01:42:05.878Z,14.25
2023-01-26T01:44:39.757Z,14.57
2023-01-26T01:47:13.619Z,14.20
2023-01-26T01:49:46.488Z,14.25
2023-01-26T01:52:17.630Z,16.65
2023-01-26T01:54:52.296Z,14.43
2023-01-26T01:57:27.878Z,17.23
2023-01-26T02:00:02.008Z,14.30
2023-01-26T02:02:31.170Z,14.00
2023-01-26T02:05:08.745Z,13.88
2023-01-26T02:07:40.489Z,14.57
2023-01-26T02:10:23.972Z,13.32
2023-01-26T02:12:57.022Z,14.48
2023-01-26T02:15:26.351Z,14.30
2023-01-26T02:17:56.253Z,15.23
2023-01-26T02:20:33.213Z,14.25
2023-01-26T02:23:08.546Z,14.50
2023-01-26T02:25:45.799Z,13.48
2023-01-26T02:28:15.874Z,12.77
2023-01-26T02:30:44.600Z,13.40
2023-01-26T02:33:16.916Z,11.88
2023-01-26T02:35:45.314Z,13.45
2023-01-26T02:38:16.785Z,14.07
2023-01-26T02:40:51.782Z,13.30
2023-01-26T02:43:22.230Z,14.15
2023-01-26T02:45:50.485Z,12.68
2023-01-26T02:48:39.589Z,12.48
2023-01-26T02:51:09.243Z,12.57
2023-01-26T02:53:37.219Z,11.95
2023-01-26T02:56:04.484Z,13.13
2023-01-26T02:58:36.803Z,12.48
2023-01-26T03:01:05.912Z,13.48
2023-01-26T03:03:42.807Z,14.05
2023-01-26T03:06:12.235Z,14.32
2023-01-26T03:08:43.741Z,13.18
2023-01-26T03:11:14.798Z,12.75
2023-01-26T03:13:44.311Z,14.32
2023-01-26T03:16:15.807Z,13.15
2023-01-26T03:19:01.572Z,12.73
2023-01-26T03:21:46.958Z,13.05
2023-01-26T03:24:33.051Z,12.98
2023-01-26T03:27:19.447Z,13.20
2023-01-26T03:29:50.588Z,12.18
2023-01-26T03:32:20.190Z,13.27
2023-01-26T03:34:48.485Z,13.23
2023-01-26T03:37:22.081Z,13.27
2023-01-26T03:40:09.696Z,13.25
2023-01-26T03:42:55.989Z,14.63
2023-01-26T03:45:43.490Z,13.13
2023-01-26T03:48:31.408Z,13.40
2023-01-26T03:51:18.003Z,12.30
2023-01-26T03:54:03.425Z,12.02
2023-01-26T03:56:33.443Z,12.73
2023-01-26T03:59:08.358Z,13.00
2023-01-26T04:01:39.760Z,14.43
2023-01-26T04:04:26.711Z,13.30
2023-01-26T04:07:12.401Z,14.57
2023-01-26T04:09:40.751Z,13.82
2023-01-26T04:12:10.863Z,14.00
2023-01-26T04:14:57.009Z,13.88
2023-01-26T04:17:49.204Z,14.10
2023-01-26T04:20:34.920Z,14.35
2023-01-26T04:23:03.411Z,13.25
2023-01-26T04:25:31.578Z,13.50
2023-01-26T04:27:59.853Z,14.55
2023-01-26T04:30:27.896Z,13.38
2023-01-26T04:32:59.299Z,13.80
2023-01-26T04:35:27.404Z,15.63
2023-01-26T04:37:55.359Z,15.10
2023-01-26T04:40:25.759Z,13.93
2023-01-26T04:42:54.024Z,13.77
2023-01-26T04:45:23.294Z,13.90
2023-01-26T04:47:52.175Z,13.13
2023-01-26T04:50:22.165Z,14.05
2023-01-26T04:52:50.107Z,13.00
2023-01-26T04:55:18.172Z,13.02
2023-01-26T04:57:46.322Z,13.50
2023-01-26T05:00:15.049Z,12.50
2023-01-26T05:02:43.454Z,12.30
2023-01-26T05:05:12.600Z,12.90
2023-01-26T05:07:42.495Z,11.75
2023-01-26T05:10:15.522Z,12.63
2023-01-26T05:12:44.164Z,12.02
2023-01-26T05:15:14.280Z,11.80
2023-01-26T05:17:42.891Z,10.80
2023-01-26T05:20:13.382Z,11.93
2023-01-26T05:22:48.736Z,11.38
2023-01-26T05:25:16.829Z,12.27
2023-01-26T05:27:48.426Z,11.10
2023-01-26T05:30:17.557Z,12.02
2023-01-26T05:32:47.071Z,11.68
2023-01-26T05:35:15.339Z,12.48
2023-01-26T05:37:46.614Z,11.07
2023-01-26T05:40:15.172Z,10.70
2023-01-26T05:42:46.336Z,11.38
2023-01-26T05:45:14.475Z,11.57
2023-01-26T05:47:44.593Z,12.32
2023-01-26T05:50:14.200Z,11.80
2023-01-26T05:52:46.665Z,12.10
2023-01-26T05:55:16.393Z,10.63
2023-01-26T05:57:44.357Z,10.95
2023-01-26T06:00:14.151Z,11.98
2023-01-26T06:02:42.572Z,12.05
2023-01-26T06:05:11.122Z,10.88
2023-01-26T06:07:39.095Z,10.30
2023-01-26T06:10:11.204Z,9.40
2023-01-26T06:12:39.863Z,9.98
2023-01-26T06:15:10.425Z,10.80
2023-01-26T06:17:38.689Z,11.10
2023-01-26T06:20:09.487Z,11.45
2023-01-26T06:22:37.920Z,11.25
2023-01-26T06:25:06.711Z,9.75
2023-01-26T06:27:37.257Z,10.07
2023-01-26T06:30:06.303Z,11.07
2023-01-26T06:32:36.963Z,11.07
2023-01-26T06:35:06.513Z,10.43
2023-01-26T06:37:34.657Z,10.82
2023-01-26T06:40:03.244Z,9.65
2023-01-26T06:42:32.579Z,9.30
2023-01-26T06:45:02.373Z,10.05
2023-01-26T06:47:30.203Z,10.35
2023-01-26T06:49:58.159Z,9.55
2023-01-26T06:52:32.402Z,10.05
2023-01-26T06:55:01.752Z,9.20
2023-01-26T06:57:29.966Z,9.60
2023-01-26T06:59:58.337Z,9.80
2023-01-26T07:02:27.908Z,10.23
2023-01-26T07:04:58.554Z,9.02
2023-01-26T07:07:27.398Z,10.00
2023-01-26T07:09:56.209Z,9.27
2023-01-26T07:12:25.079Z,9.50
2023-01-26T07:14:55.937Z,10.07
2023-01-26T07:17:24.235Z,9.70
2023-01-26T07:19:53.769Z,8.50
2023-01-26T07:22:21.976Z,9.10
2023-01-26T07:24:50.046Z,8.25
2023-01-26T07:27:18.526Z,10.00
2023-01-26T07:29:46.966Z,9.20
2023-01-26T07:32:15.232Z,8.98
2023-01-26T07:34:43.266Z,8.73
2023-01-26T07:37:12.740Z,9.25
2023-01-26T07:39:41.024Z,8.50
2023-01-26T07:42:10.465Z,9.35
2023-01-26T07:44:39.156Z,9.35
2023-01-26T07:47:08.007Z,9.25
2023-01-26T07:49:36.089Z,8.35
2023-01-26T07:52:06.088Z,7.90
2023-01-26T07:54:35.789Z,7.50
2023-01-26T07:57:03.870Z,6.93
2023-01-26T07:59:32.278Z,7.07
2023-01-26T08:02:08.205Z,7.35
2023-01-26T08:04:36.435Z,7.28
2023-01-26T08:07:04.698Z,8.55
2023-01-26T08:09:33.181Z,8.38
2023-01-26T08:12:05.621Z,8.95
2023-01-26T08:14:46.089Z,8.77
2023-01-26T08:17:17.538Z,8.55
2023-01-26T08:19:47.242Z,7.93
2023-01-26T08:22:15.270Z,6.18
2023-01-26T08:24:43.789Z,7.63
2023-01-26T08:27:16.177Z,6.93
2023-01-26T08:29:46.247Z,6.45
2023-01-26T08:32:14.547Z,7.75
2023-01-26T08:34:42.978Z,8.27
2023-01-26T08:37:11.446Z,9.35
2023-01-26T08:39:40.004Z,7.78
2023-01-26T08:42:08.363Z,6.65
2023-01-26T08:44:38.172Z,7.93
2023-01-26T08:47:06.386Z,6.88
2023-01-26T08:49:34.479Z,6.85
2023-01-26T08:52:03.356Z,6.75
2023-01-26T08:54:31.778Z,6.20
2023-01-26T08:57:00.160Z,6.40
2023-01-26T08:59:29.172Z,6.43
2023-01-26T09:01:59.275Z,6.70
2023-01-26T09:04:28.320Z,6.57
2023-01-26T09:06:56.773Z,5.25
2023-01-26T09:09:25.216Z,5.55
2023-01-26T09:12:01.959Z,5.35
2023-01-26T09:14:30.127Z,5.90
2023-01-26T09:17:00.434Z,6.18
2023-01-26T09:19:31.024Z,5.78
2023-01-26T09:21:59.329Z,6.25
2023-01-26T09:24:27.833Z,7.05
2023-01-26T09:26:56.958Z,6.38
2023-01-26T09:29:25.602Z,7.03
2023-01-26T09:31:55.153Z,6.70
2023-01-26T09:34:25.325Z,7.03
2023-01-26T09:36:53.277Z,7.60
2023-01-26T09:39:21.493Z,6.65
2023-01-26T09:42:05.288Z,8.10
2023-01-26T09:44:43.384Z,12.82
2023-01-26T09:47:19.378Z,10.57
2023-01-26T09:50:00.921Z,8.02
2023-01-26T09:52:31.782Z,9.73
2023-01-26T09:55:05.955Z,6.65
2023-01-26T09:57:42.113Z,5.57
2023-01-26T10:00:18.062Z,4.47
2023-01-26T10:02:58.305Z,4.53
2023-01-26T10:05:37.104Z,11.32
2023-01-26T10:08:12.708Z,6.93
2023-01-26T10:10:46.971Z,6.55
2023-01-26T10:13:16.974Z,5.55
2023-01-26T10:15:49.113Z,3.92
2023-01-26T10:18:20.006Z,4.20
2023-01-26T10:20:56.168Z,4.35
2023-01-26T10:23:28.712Z,4.70
2023-01-26T10:26:03.296Z,5.38
2023-01-26T10:28:35.347Z,5.82
2023-01-26T10:31:07.185Z,5.97
2023-01-26T10:33:37.928Z,5.25
2023-01-26T10:36:11.335Z,25.00
2023-01-26T10:38:44.789Z,4.93
2023-01-26T10:41:25.754Z,4.80
2023-01-26T10:43:56.240Z,5.00
2023-01-26T10:46:33.882Z,4.93
2023-01-26T10:49:03.711Z,7.25
2023-01-26T10:51:35.591Z,5.93
2023-01-26T10:54:24.278Z,6.40
2023-01-26T10:56:56.743Z,6.03
2023-01-26T10:59:30.758Z,4.93
2023-01-26T11:02:02.735Z,4.88
2023-01-26T11:04:32.781Z,6.00
2023-01-26T11:07:26.426Z,5.80
2023-01-26T11:09:55.321Z,5.35
2023-01-26T11:12:26.948Z,9.98
2023-01-26T11:15:04.340Z,6.78
2023-01-26T11:17:38.548Z,6.90
2023-01-26T11:20:26.769Z,7.60
2023-01-26T11:23:02.997Z,7.95
2023-01-26T11:25:40.617Z,7.50
2023-01-26T11:28:27.967Z,6.05
2023-01-26T11:31:13.021Z,7.78
2023-01-26T11:33:53.032Z,8.45
2023-01-26T11:36:34.385Z,7.15
2023-01-26T11:39:15.164Z,7.85
2023-01-26T11:41:56.405Z,7.03
2023-01-26T11:44:42.111Z,6.38
2023-01-26T11:47:23.796Z,13.75
2023-01-26T11:50:24.401Z,8.95
2023-01-26T11:53:22.506Z,9.40
2023-01-26T11:56:08.609Z,9.43
2023-01-26T11:58:41.930Z,7.47
2023-01-26T12:01:16.007Z,8.25
2023-01-26T12:03:48.011Z,8.98
2023-01-26T12:06:20.793Z,7.67
2023-01-26T12:08:54.257Z,7.82
2023-01-26T12:11:38.793Z,9.50
2023-01-26T12:14:16.702Z,9.60
2023-01-26T12:17:00.006Z,9.00
2023-01-26T12:19:44.509Z,10.52
2023-01-26T12:22:19.505Z,9.35
2023-01-26T12:25:19.048Z,9.27
2023-01-26T12:27:48.739Z,9.07
2023-01-26T12:30:27.087Z,9.68
2023-01-26T12:32:58.737Z,9.25
2023-01-26T12:35:43.617Z,9.18
2023-01-26T12:38:18.617Z,8.30
2023-01-26T12:41:01.364Z,8.82
2023-01-26T12:43:54.564Z,8.05
2023-01-26T12:46:25.000Z,7.10
2023-01-26T12:49:00.195Z,7.93
2023-01-26T12:51:32.513Z,9.52
2023-01-26T12:54:05.566Z,8.20
2023-01-26T12:56:38.723Z,7.88
2023-01-26T12:59:38.588Z,8.48
2023-01-26T13:02:22.436Z,8.45
2023-01-26T13:04:51.961Z,8.02
2023-01-26T13:07:33.761Z,8.48
2023-01-26T13:10:29.267Z,10.38
2023-01-26T13:13:00.379Z,9.73
2023-01-26T13:15:32.501Z,9.27
2023-01-26T13:18:02.134Z,10.05
2023-01-26T13:20:51.326Z,9.18
2023-01-26T13:23:44.840Z,9.80
2023-01-26T13:26:22.793Z,9.52
2023-01-26T13:28:51.155Z,9.63
2023-01-26T13:31:35.015Z,10.13
2023-01-26T13:34:08.660Z,8.52
2023-01-26T13:36:40.432Z,10.27
2023-01-26T13:39:15.435Z,10.13
2023-01-26T13:41:48.565Z,10.23
2023-01-26T13:44:19.800Z,11.65
2023-01-26T13:46:56.961Z,10.98
2023-01-26T13:49:27.352Z,10.00
2023-01-26T13:51:55.546Z,10.07
2023-01-26T13:54:24.849Z,9.73
2023-01-26T13:57:03.093Z,7.82
2023-01-26T13:59:33.142Z,8.80
2023-01-26T14:02:02.819Z,8.80
2023-01-26T14:04:32.483Z,9.40
2023-01-26T14:07:04.226Z,8.95
2023-01-26T14:09:35.076Z,8.80
2023-01-26T14:12:05.987Z,8.75
2023-01-26T14:14:36.910Z,9.38
2023-01-26T14:17:23.858Z,8.63
2023-01-26T14:19:53.203Z,8.75
2023-01-26T14:22:22.433Z,10.90
2023-01-26T14:24:52.839Z,9.77
2023-01-26T14:27:37.126Z,11.00
2023-01-26T14:30:23.010Z,10.90
2023-01-26T14:32:59.029Z,10.60
2023-01-26T14:35:34.735Z,10.18
2023-01-26T14:38:07.780Z,9.60
2023-01-26T14:40:35.740Z,11.30
2023-01-26T14:43:07.699Z,11.52
2023-01-26T14:45:36.524Z,11.30
2023-01-26T14:48:10.591Z,10.70
2023-01-26T14:50:39.412Z,11.40
2023-01-26T14:53:19.798Z,11.68
2023-01-26T14:55:49.255Z,10.75
2023-01-26T14:58:23.368Z,12.77
2023-01-26T15:00:52.569Z,12.15
2023-01-26T15:03:28.907Z,13.80
2023-01-26T15:06:17.070Z,13.38
2023-01-26T15:09:01.226Z,14.75
2023-01-26T15:11:54.684Z,12.43
2023-01-26T15:17:00.654Z,13.88
2023-01-26T15:19:39.258Z,14.40
2023-01-26T15:22:17.069Z,13.75
2023-01-26T15:24:47.953Z,15.55
2023-01-26T15:27:16.034Z,12.68
2023-01-26T15:29:44.617Z,12.10
2023-01-26T15:32:30.451Z,13.65
2023-01-26T15:35:18.857Z,13.27
2023-01-26T15:37:46.864Z,13.75
2023-01-26T15:40:15.590Z,13.50
2023-01-26T15:42:44.162Z,14.05
2023-01-26T15:45:24.666Z,14.98
2023-01-26T15:47:52.705Z,16.05
2023-01-26T15:50:27.839Z,13.27
2023-01-26T15:52:56.800Z,13.20
2023-01-26T15:55:29.294Z,15.30
2023-01-26T15:57:57.265Z,17.20
2023-01-26T16:00:28.220Z,16.80
2023-01-26T16:02:57.647Z,15.77
2023-01-26T16:05:28.843Z,12.68
2023-01-26T16:07:56.765Z,12.95
2023-01-26T16:10:24.929Z,14.02
2023-01-26T16:12:53.012Z,13.55
2023-01-26T16:15:32.224Z,15.23
2023-01-26T16:18:00.124Z,11.27
2023-01-26T16:20:29.444Z,14.93
2023-01-26T16:22:57.351Z,15.40
2023-01-26T16:25:27.769Z,16.02
2023-01-26T16:27:57.463Z,13.73
2023-01-26T16:30:26.588Z,14.07
2023-01-26T16:32:55.313Z,13.90
2023-01-26T16:35:24.721Z,14.10
2023-01-26T16:37:54.290Z,12.93
2023-01-26T16:40:22.367Z,12.20
2023-01-26T16:42:53.324Z,14.23
2023-01-26T16:45:24.443Z,13.93
2023-01-26T16:47:55.868Z,12.30
2023-01-26T16:50:24.171Z,11.35
2023-01-26T16:52:54.147Z,12.43
2023-01-26T16:55:23.522Z,11.70
2023-01-26T16:57:51.502Z,10.10
2023-01-26T17:00:21.674Z,11.95
2023-01-26T17:02:52.548Z,11.35
2023-01-26T17:05:22.746Z,9.85
2023-01-26T17:07:51.632Z,9.80
2023-01-26T17:10:22.798Z,10.25
2023-01-26T17:12:50.897Z,10.73
2023-01-26T17:15:19.680Z,11.40
2023-01-26T17:17:50.808Z,8.52
2023-01-26T17:20:20.194Z,8.93
2023-01-26T17:22:48.799Z,8.32
2023-01-26T17:25:17.813Z,9.35
2023-01-26T17:27:49.724Z,8.25
2023-01-26T17:30:19.521Z,9.00
2023-01-26T17:32:47.785Z,9.43
2023-01-26T17:35:16.309Z,8.32
2023-01-26T17:37:44.361Z,9.45
2023-01-26T17:40:16.326Z,10.45
2023-01-26T17:42:44.293Z,9.23
2023-01-26T17:45:14.194Z,8.82
2023-01-26T17:47:43.547Z,8.20
2023-01-26T17:50:12.398Z,8.70
2023-01-26T17:52:40.624Z,8.18
2023-01-26T17:55:10.080Z,8.98
2023-01-26T17:57:38.735Z,8.68
2023-01-26T18:00:08.489Z,8.20
2023-01-26T18:02:39.716Z,8.60
2023-01-26T18:05:09.467Z,9.13
2023-01-26T18:07:37.616Z,8.95
2023-01-26T18:10:06.903Z,9.55
2023-01-26T18:12:36.633Z,10.02
2023-01-26T18:15:05.128Z,12.00
2023-01-26T18:17:36.649Z,11.60
2023-01-26T18:20:07.002Z,10.95
2023-01-26T18:22:34.995Z,11.68
2023-01-26T18:25:03.014Z,10.73
2023-01-26T18:27:31.198Z,12.80
2023-01-26T18:29:59.771Z,11.77
2023-01-26T18:32:28.539Z,10.77
2023-01-26T18:34:56.509Z,11.45
2023-01-26T18:37:27.451Z,11.35
2023-01-26T18:39:55.393Z,11.40
2023-01-26T18:42:24.697Z,12.23
2023-01-26T18:45:00.798Z,12.35
2023-01-26T18:47:29.214Z,10.85
2023-01-26T18:50:00.113Z,10.88
2023-01-26T18:52:31.072Z,10.77
2023-01-26T18:55:00.531Z,11.77
2023-01-26T18:57:28.518Z,10.25
2023-01-26T18:59:56.747Z,10.80
2023-01-26T19:02:26.244Z,10.85
2023-01-26T19:04:55.078Z,10.77
2023-01-26T19:07:24.595Z,13.10
2023-01-26T19:09:54.160Z,12.10
2023-01-26T19:12:22.159Z,14.25
2023-01-26T19:14:50.081Z,13.00
2023-01-26T19:17:18.269Z,12.75
2023-01-26T19:19:47.572Z,13.48
2023-01-26T19:22:15.715Z,13.55
2023-01-26T19:24:44.340Z,14.25
2023-01-26T19:27:13.836Z,14.10
2023-01-26T19:29:41.763Z,13.60
2023-01-26T19:32:10.253Z,13.52
2023-01-26T19:34:38.404Z,13.45
2023-01-26T19:37:06.395Z,14.05
2023-01-26T19:39:36.757Z,14.18
2023-01-26T19:42:05.292Z,14.98
2023-01-26T19:44:34.762Z,13.55
2023-01-26T19:47:02.926Z,14.60
2023-01-26T19:49:31.063Z,15.10
2023-01-26T19:52:01.431Z,16.05
2023-01-26T19:54:29.781Z,14.57
2023-01-26T19:56:59.013Z,15.15
2023-01-26T19:59:27.637Z,16.05
2023-01-26T20:01:59.464Z,15.85
2023-01-26T20:04:27.415Z,14.75
2023-01-26T20:06:55.585Z,15.60
2023-01-26T20:09:23.868Z,16.65
2023-01-26T20:11:52.615Z,16.83
2023-01-26T20:14:21.283Z,15.80
2023-01-26T20:16:49.423Z,16.98
2023-01-26T20:19:19.240Z,17.05
2023-01-26T20:21:47.525Z,17.77
2023-01-26T20:24:16.793Z,15.80
2023-01-26T20:26:45.749Z,16.45
2023-01-26T20:29:15.320Z,18.65
2023-01-26T20:31:44.163Z,17.60
2023-01-26T20:34:13.625Z,16.67
2023-01-26T20:36:43.911Z,18.13
2023-01-26T20:39:16.565Z,18.17
2023-01-26T20:41:44.539Z,17.80
2023-01-26T20:44:13.559Z,17.33
2023-01-26T20:46:44.572Z,17.77
2023-01-26T20:49:15.827Z,18.13
2023-01-26T20:51:46.685Z,18.60
2023-01-26T20:54:17.633Z,16.85
2023-01-26T20:56:47.751Z,17.45
2023-01-26T20:59:15.889Z,17.15
2023-01-26T21:01:46.362Z,17.17
2023-01-26T21:04:14.472Z,17.10
2023-01-26T21:06:44.300Z,17.38
2023-01-26T21:09:13.043Z,16.92
2023-01-26T21:11:41.278Z,17.27
2023-01-26T21:14:13.210Z,16.35
2023-01-26T21:16:42.003Z,18.05
2023-01-26T21:19:09.987Z,18.45
2023-01-26T21:21:38.366Z,17.08
2023-01-26T21:24:08.942Z,17.60
2023-01-26T21:26:37.410Z,17.45
2023-01-26T21:29:06.622Z,15.30
2023-01-26T21:31:36.269Z,14.18
2023-01-26T21:34:04.401Z,15.35
2023-01-26T21:36:34.217Z,15.82
2023-01-26T21:39:02.707Z,16.35
2023-01-26T21:41:50.843Z,15.55
2023-01-26T21:44:20.195Z,18.13
2023-01-26T21:46:49.980Z,15.52
2023-01-26T21:49:18.193Z,16.95
2023-01-26T21:52:04.296Z,17.08
2023-01-26T21:54:32.677Z,15.68
2023-01-26T21:57:03.550Z,15.25
2023-01-26T21:59:30.891Z,15.55
2023-01-26T22:01:59.456Z,16.58
2023-01-26T22:04:29.046Z,14.82
2023-01-26T22:06:57.846Z,15.63
2023-01-26T22:09:26.711Z,15.18
2023-01-26T22:11:54.854Z,15.27
2023-01-26T22:14:26.139Z,16.00
2023-01-26T22:16:54.424Z,15.73
2023-01-26T22:19:25.978Z,16.73
2023-01-26T22:21:54.363Z,18.92
2023-01-26T22:24:24.270Z,17.20
2023-01-26T22:26:52.677Z,16.35
2023-01-26T22:29:20.948Z,15.35
2023-01-26T22:31:51.164Z,15.10
2023-01-26T22:34:19.216Z,18.48
2023-01-26T22:36:47.287Z,16.58
2023-01-26T22:39:16.996Z,16.92
2023-01-26T22:41:45.393Z,15.10
2023-01-26T22:44:13.498Z,15.13
2023-01-26T22:46:41.798Z,16.13
2023-01-26T22:49:12.335Z,16.02
2023-01-26T22:51:41.425Z,15.70
2023-01-26T22:54:09.458Z,16.08
2023-01-26T22:56:37.649Z,15.55
2023-01-26T22:59:06.199Z,16.40
2023-01-26T23:01:37.060Z,16.20
2023-01-26T23:04:07.438Z,15.68
2023-01-26T23:06:36.795Z,16.23
2023-01-26T23:09:05.332Z,15.05
2023-01-26T23:11:33.627Z,15.75
2023-01-26T23:14:02.325Z,16.85
2023-01-26T23:16:30.775Z,16.38
2023-01-26T23:19:00.400Z,18.75
2023-01-26T23:21:29.848Z,16.80
2023-01-26T23:24:00.605Z,17.00
2023-01-26T23:26:28.830Z,16.40
2023-01-26T23:28:57.199Z,17.10
2023-01-26T23:31:25.433Z,17.13
2023-01-26T23:33:53.606Z,17.17
2023-01-26T23:36:23.356Z,16.30
2023-01-26T23:38:52.686Z,17.02
2023-01-26T23:41:23.535Z,16.00
2023-01-26T23:43:54.513Z,15.43
2023-01-26T23:46:23.275Z,15.07
2023-01-26T23:48:52.049Z,15.35
2023-01-26T23:51:21.675Z,15.63
2023-01-26T23:53:49.926Z,16.23
2023-01-26T23:56:18.786Z,14.88
2023-01-26T23:58:50.484Z,15.88
